Time;durP1;ratioP1;P1;durP2;ratioP2;P2;SDS_P1;SDS_P2;PMS_P1;PMS_P2;Temp;Humidity;BMP_temperature;BMP_pressure;BME280_temperature;BME280_humidity;BME280_pressure;Samples;Min_cycle;Max_cycle;Signal;HPM_P1;HPM_P2
2021/03/02 00:01:06;;;;;;;15.47;10.53;;;;;;;3.29;78.37;100012.81;5110156;27;103241;-75
2021/03/02 00:03:36;;;;;;;12.57;8.83;;;;;;;3.18;78.78;100025.25;5110783;27;103165;-75
2021/03/02 00:06:05;;;;;;;14.23;10.13;;;;;;;2.91;80.58;100026.72;5111071;27;103157;-75
2021/03/02 00:08:33;;;;;;;14.57;9.30;;;;;;;3.11;79.51;100023.69;5109706;27;105485;-75
2021/03/02 00:11:01;;;;;;;14.93;9.70;;;;;;;3.14;79.03;100026.22;5107128;27;104843;-75
2021/03/02 00:13:30;;;;;;;12.33;8.63;;;;;;;3.25;78.15;100022.50;5102871;27;103071;-75
2021/03/02 00:15:59;;;;;;;13.43;8.50;;;;;;;3.12;78.62;100025.38;5090557;27;102851;-76
2021/03/02 00:18:29;;;;;;;13.07;8.60;;;;;;;2.99;79.40;100024.81;5088502;27;113586;-75
2021/03/02 00:21:08;;;;;;;13.93;9.67;;;;;;;3.11;77.89;100013.25;5061803;27;104900;-75
2021/03/02 00:23:38;;;;;;;11.70;7.43;;;;;;;3.23;77.26;100031.25;5072115;27;102579;-75
2021/03/02 00:26:07;;;;;;;12.07;8.73;;;;;;;3.14;77.33;100024.47;5086386;27;103143;-76
2021/03/02 00:28:35;;;;;;;10.63;7.90;;;;;;;3.23;77.41;100026.88;5081256;27;105442;-75
2021/03/02 00:31:04;;;;;;;14.13;9.50;;;;;;;3.26;77.49;100023.34;5094223;27;103697;-76
2021/03/02 00:33:32;;;;;;;12.60;8.87;;;;;;;3.30;76.87;100022.38;5110897;27;103127;-75
2021/03/02 00:35:59;;;;;;;14.00;9.83;;;;;;;2.88;79.43;100029.38;5105983;27;102944;-75
2021/03/02 00:38:26;;;;;;;12.50;8.03;;;;;;;3.08;78.22;100031.59;5088753;27;103786;-75
2021/03/02 00:40:54;;;;;;;10.40;8.23;;;;;;;3.08;78.14;100023.75;5108209;27;103768;-75
2021/03/02 00:43:20;;;;;;;14.10;10.60;;;;;;;2.99;78.81;100024.81;5108234;27;102624;-75
2021/03/02 00:45:48;;;;;;;13.20;8.60;;;;;;;2.92;79.61;100029.28;5110816;27;103154;-75
2021/03/02 00:48:16;;;;;;;13.73;9.50;;;;;;;2.66;80.94;100031.56;5103636;27;104737;-75
2021/03/02 00:50:43;;;;;;;13.20;8.20;;;;;;;2.84;79.72;100033.78;5090124;27;103757;-75
2021/03/02 00:53:12;;;;;;;10.97;8.10;;;;;;;3.02;78.77;100029.09;5105554;27;103513;-75
2021/03/02 00:55:39;;;;;;;11.27;8.80;;;;;;;3.09;77.45;100033.31;5071312;27;103733;-76
2021/03/02 00:58:07;;;;;;;14.10;8.97;;;;;;;2.85;79.15;100032.06;5079954;27;105700;-75
2021/03/02 01:00:36;;;;;;;14.10;9.57;;;;;;;2.39;81.49;100026.03;5069959;27;107899;-75
2021/03/02 01:03:09;;;;;;;11.10;7.93;;;;;;;2.39;82.15;100028.63;5073940;27;102961;-75
2021/03/02 01:05:39;;;;;;;16.63;9.93;;;;;;;2.37;81.85;100026.03;5075032;27;103189;-75
2021/03/02 01:08:11;;;;;;;11.80;8.43;;;;;;;2.51;81.53;100024.03;5070280;27;104183;-75
2021/03/02 01:10:40;;;;;;;9.37;6.97;;;;;;;2.69;80.15;100033.25;5071562;27;103195;-75
2021/03/02 01:13:15;;;;;;;11.53;7.17;;;;;;;2.77;78.90;100029.59;5071619;27;102940;-75
2021/03/02 01:15:42;;;;;;;10.83;8.47;;;;;;;2.79;78.66;100025.22;5098940;27;103014;-75
2021/03/02 01:18:10;;;;;;;11.07;8.47;;;;;;;2.66;79.47;100031.56;5090184;27;103869;-76
2021/03/02 01:20:38;;;;;;;12.33;8.67;;;;;;;2.42;80.57;100024.19;5109413;27;104157;-75
2021/03/02 01:23:06;;;;;;;14.13;9.60;;;;;;;1.84;83.68;100031.31;5103018;27;102728;-76
2021/03/02 01:25:33;;;;;;;14.57;9.43;;;;;;;1.70;85.18;100027.19;5087493;27;102966;-75
2021/03/02 01:28:00;;;;;;;12.53;8.57;;;;;;;1.98;84.36;100029.34;5069684;27;104193;-75
2021/03/02 01:30:27;;;;;;;13.43;9.60;;;;;;;2.18;82.98;100022.91;5088460;27;103125;-75
2021/03/02 01:32:54;;;;;;;14.10;8.93;;;;;;;2.14;83.04;100020.34;5105634;27;104145;-75
2021/03/02 01:35:23;;;;;;;10.60;7.37;;;;;;;2.36;81.69;100011.25;5109975;27;102948;-75
2021/03/02 01:37:52;;;;;;;10.70;7.33;;;;;;;2.49;80.16;100017.97;5095737;27;103883;-76
2021/03/02 01:40:20;;;;;;;12.93;8.10;;;;;;;2.53;80.17;100019.63;5072987;27;106084;-76
2021/03/02 01:42:47;;;;;;;13.00;8.63;;;;;;;2.52;80.58;100017.94;5087606;27;103108;-75
2021/03/02 01:45:17;;;;;;;12.23;10.07;;;;;;;2.40;80.74;100023.38;5093970;27;103161;-76
2021/03/02 01:47:46;;;;;;;9.77;7.43;;;;;;;2.33;81.46;100020.00;5108005;27;103818;-76
2021/03/02 01:50:14;;;;;;;9.27;7.00;;;;;;;2.39;81.15;100021.63;5084572;27;103754;-75
2021/03/02 01:52:42;;;;;;;13.00;9.13;;;;;;;2.13;81.69;100023.88;5107586;27;103012;-75
2021/03/02 01:55:10;;;;;;;12.20;9.30;;;;;;;2.18;82.14;100022.91;5104532;27;103848;-76
2021/03/02 01:57:37;;;;;;;15.33;10.40;;;;;;;1.88;82.93;100033.00;5091903;27;104185;-75
2021/03/02 02:00:08;;;;;;;12.03;9.63;;;;;;;1.63;84.04;100030.75;5106397;27;105070;-75
2021/03/02 02:02:43;;;;;;;9.80;8.20;;;;;;;1.78;84.65;100027.06;5097241;27;103108;-75
2021/03/02 02:05:14;;;;;;;15.67;10.40;;;;;;;1.45;85.57;100027.59;5092026;27;103108;-75
2021/03/02 02:07:43;;;;;;;13.20;9.57;;;;;;;1.41;86.76;100024.16;5107275;27;104245;-75
2021/03/02 02:10:15;;;;;;;15.10;10.30;;;;;;;1.54;86.19;100020.50;5100777;27;103200;-75
2021/03/02 02:12:47;;;;;;;11.40;8.27;;;;;;;1.73;85.09;100029.75;5107567;27;102986;-75
2021/03/02 02:15:18;;;;;;;9.67;7.53;;;;;;;1.99;83.03;100020.66;5109404;27;102934;-75
2021/03/02 02:17:50;;;;;;;12.30;8.30;;;;;;;2.16;81.19;100016.84;5081782;27;106572;-75
2021/03/02 02:20:27;;;;;;;9.80;6.77;;;;;;;2.26;80.22;100020.16;5087837;27;103196;-75
2021/03/02 02:23:08;;;;;;;13.33;9.13;;;;;;;2.17;80.85;100020.31;5089962;27;103073;-75
2021/03/02 02:25:46;;;;;;;13.33;9.10;;;;;;;1.77;82.87;100015.78;5086550;27;103209;-75
2021/03/02 02:28:16;;;;;;;12.60;9.47;;;;;;;1.62;83.40;100010.81;5088805;27;103724;-75
2021/03/02 02:30:46;;;;;;;12.20;8.93;;;;;;;1.34;85.48;100025.13;5108101;27;104500;-75
2021/03/02 02:33:16;;;;;;;11.23;7.80;;;;;;;1.61;84.91;100014.28;5090250;27;103132;-75
2021/03/02 02:35:47;;;;;;;12.57;9.77;;;;;;;1.62;83.04;100010.81;5102080;27;103045;-75
2021/03/02 02:38:16;;;;;;;11.50;9.07;;;;;;;1.34;85.10;100014.72;5106394;27;104059;-75
2021/03/02 02:40:44;;;;;;;10.20;8.40;;;;;;;1.59;84.31;100010.88;5090268;27;103235;-75
2021/03/02 02:43:15;;;;;;;13.43;9.70;;;;;;;1.50;83.76;100020.56;5109085;27;102966;-75
2021/03/02 02:45:42;;;;;;;10.93;8.43;;;;;;;1.62;82.98;100013.44;5082321;27;103186;-75
2021/03/02 02:48:11;;;;;;;13.53;9.57;;;;;;;1.65;82.09;100010.78;5088822;27;104994;-75
2021/03/02 02:50:39;;;;;;;9.33;7.10;;;;;;;1.76;81.96;100015.81;5084893;27;103281;-75
2021/03/02 02:53:07;;;;;;;13.17;8.63;;;;;;;1.79;81.23;100022.72;5087031;27;103212;-76
2021/03/02 02:55:41;;;;;;;14.37;9.47;;;;;;;1.38;84.18;100021.59;5085162;27;103253;-75
2021/03/02 02:58:11;;;;;;;8.27;6.77;;;;;;;1.40;84.87;100014.63;5077733;27;105304;-75
2021/03/02 03:00:42;;;;;;;9.77;7.97;;;;;;;1.56;83.30;100016.13;5056970;27;106148;-75
2021/03/02 03:03:14;;;;;;;7.73;6.47;;;;;;;1.64;82.79;100019.47;5093985;27;105250;-75
2021/03/02 03:05:47;;;;;;;11.53;8.50;;;;;;;1.67;82.26;100019.41;5090330;27;103032;-75
2021/03/02 03:08:18;;;;;;;11.50;8.27;;;;;;;1.64;82.59;100016.84;5107681;27;103837;-75
2021/03/02 03:10:48;;;;;;;13.40;8.97;;;;;;;1.44;83.65;100021.50;5098998;27;103752;-75
2021/03/02 03:13:18;;;;;;;11.67;9.23;;;;;;;1.18;85.22;100018.41;5089247;27;103146;-75
2021/03/02 03:15:50;;;;;;;12.73;9.20;;;;;;;0.92;86.53;100020.50;5099551;27;104214;-73
2021/03/02 03:18:19;;;;;;;10.53;8.20;;;;;;;0.98;87.45;100020.44;5103818;27;103768;-75
2021/03/02 03:20:49;;;;;;;12.53;8.20;;;;;;;1.16;85.96;100020.19;5081293;27;106332;-75
2021/03/02 03:23:16;;;;;;;14.37;9.23;;;;;;;1.15;85.36;100029.72;5105314;27;102572;-75
2021/03/02 03:25:43;;;;;;;12.40;9.50;;;;;;;1.09;85.58;100024.63;5101883;27;102665;-75
2021/03/02 03:28:14;;;;;;;11.90;9.00;;;;;;;0.94;87.37;100023.94;5091486;27;103852;-75
2021/03/02 03:30:42;;;;;;;10.83;8.63;;;;;;;1.11;86.46;100020.25;5090462;27;103760;-74
2021/03/02 03:33:15;;;;;;;9.53;6.63;;;;;;;1.27;85.11;100028.69;5090963;27;102500;-75
2021/03/02 03:35:42;;;;;;;11.77;7.83;;;;;;;1.45;83.78;100031.06;5098266;27;102561;-75
2021/03/02 03:38:10;;;;;;;11.03;8.50;;;;;;;1.15;84.97;100028.88;5074478;27;105323;-75
2021/03/02 03:40:37;;;;;;;13.10;8.67;;;;;;;1.03;87.01;100026.44;5110024;27;103271;-75
2021/03/02 03:43:05;;;;;;;14.10;9.63;;;;;;;1.15;86.97;100034.09;5110824;27;103063;-75
2021/03/02 03:45:32;;;;;;;12.47;9.33;;;;;;;1.35;85.46;100037.25;5109661;27;104021;-75
2021/03/02 03:47:59;;;;;;;10.23;7.03;;;;;;;1.42;83.80;100044.13;5071653;27;104585;-75
2021/03/02 03:50:27;;;;;;;13.87;10.13;;;;;;;1.23;83.32;100039.19;5106298;27;103265;-75
2021/03/02 03:52:59;;;;;;;11.47;9.50;;;;;;;1.12;84.51;100036.72;5102601;27;103194;-75
2021/03/02 03:55:30;;;;;;;9.20;6.80;;;;;;;1.19;85.15;100035.75;5107569;27;105886;-75
2021/03/02 03:57:58;;;;;;;12.93;9.60;;;;;;;1.03;84.43;100040.31;5100120;27;104644;-74
2021/03/02 04:00:26;;;;;;;12.37;8.43;;;;;;;0.82;87.03;100045.78;5088280;27;103641;-74
2021/03/02 04:02:53;;;;;;;11.03;7.40;;;;;;;0.83;87.37;100042.31;5105372;27;102628;-74
2021/03/02 04:05:21;;;;;;;11.80;8.27;;;;;;;0.98;86.84;100043.84;5092050;27;102695;-75
2021/03/02 04:07:50;;;;;;;8.53;6.67;;;;;;;1.10;85.00;100038.47;5080363;27;104551;-74
2021/03/02 04:10:17;;;;;;;13.73;9.07;;;;;;;1.17;84.21;100042.72;5076166;27;105050;-74
2021/03/02 04:12:45;;;;;;;10.80;6.30;;;;;;;1.14;84.54;100053.19;5103915;27;103001;-75
2021/03/02 04:15:28;;;;;;;8.40;5.93;;;;;;;1.10;85.04;100054.09;5110822;27;103143;-73
2021/03/02 04:17:57;;;;;;;9.73;8.37;;;;;;;1.14;84.78;100053.19;5110483;27;103744;-74
2021/03/02 04:20:25;;;;;;;10.27;8.33;;;;;;;1.08;84.79;100055.88;5101934;27;104245;-73
2021/03/02 04:22:56;;;;;;;10.13;8.33;;;;;;;0.67;87.52;100061.56;5101392;27;103888;-73
2021/03/02 04:25:23;;;;;;;12.13;8.87;;;;;;;0.58;89.31;100054.75;5095997;27;102750;-74
2021/03/02 04:27:50;;;;;;;12.30;9.37;;;;;;;0.39;90.90;100055.78;5094650;27;103939;-74
2021/03/02 04:30:18;;;;;;;14.87;9.90;;;;;;;0.67;89.43;100055.50;5100159;27;103784;-74
2021/03/02 04:32:45;;;;;;;8.80;7.03;;;;;;;0.89;88.31;100059.59;5110354;27;104085;-74
2021/03/02 04:35:13;;;;;;;8.50;6.43;;;;;;;0.89;86.92;100052.63;5103044;27;102947;-73
2021/03/02 04:37:40;;;;;;;12.07;8.07;;;;;;;0.78;87.84;100059.72;5111099;27;104389;-72
2021/03/02 04:40:09;;;;;;;14.57;8.73;;;;;;;0.35;90.84;100059.31;5074573;27;104985;-73
2021/03/02 04:42:36;;;;;;;11.93;8.90;;;;;;;0.44;92.22;100069.63;5110042;27;103003;-73
2021/03/02 04:45:05;;;;;;;9.80;7.70;;;;;;;0.67;90.98;100065.91;5107028;27;102622;-73
2021/03/02 04:47:32;;;;;;;12.07;9.30;;;;;;;0.72;89.81;100064.97;5110351;27;104354;-73
2021/03/02 04:49:59;;;;;;;16.77;10.77;;;;;;;0.62;91.93;100060.75;5086178;27;104762;-73
2021/03/02 04:52:26;;;;;;;21.40;14.17;;;;;;;0.82;92.34;100066.59;5108427;27;102998;-83
2021/03/02 04:54:53;;;;;;;22.50;14.93;;;;;;;0.75;93.35;100064.09;5091013;27;103120;-84
2021/03/02 04:57:21;;;;;;;21.93;14.73;;;;;;;0.64;94.32;100058.16;5099082;27;103329;-85
2021/03/02 04:59:48;;;;;;;21.70;13.47;;;;;;;0.60;94.79;100059.91;5109855;27;104217;-86
2021/03/02 05:02:15;;;;;;;17.90;13.03;;;;;;;0.63;94.23;100061.59;5093240;27;102618;-85
2021/03/02 05:04:42;;;;;;;18.57;12.80;;;;;;;0.79;93.55;100061.41;5093244;27;102549;-85
2021/03/02 05:07:09;;;;;;;17.10;10.30;;;;;;;0.89;92.28;100067.38;5071876;27;104293;-85
2021/03/02 05:09:36;;;;;;;15.20;11.47;;;;;;;0.85;88.97;100058.75;5075425;27;103319;-85
2021/03/02 05:12:04;;;;;;;20.60;12.37;;;;;;;0.62;91.47;100059.91;5109902;27;102852;-86
2021/03/02 05:14:31;;;;;;;18.37;13.03;;;;;;;0.66;94.62;100056.38;5102862;27;103571;-88
2021/03/02 05:16:58;;;;;;;18.23;13.73;;;;;;;0.87;93.67;100061.34;5091995;27;103366;-84
2021/03/02 05:19:30;;;;;;;17.60;13.97;;;;;;;0.92;93.98;100062.16;5110911;27;104210;-84
2021/03/02 05:21:58;;;;;;;17.33;13.47;;;;;;;0.79;95.17;100061.41;5104820;27;102881;-85
2021/03/02 05:24:25;;;;;;;17.37;12.17;;;;;;;0.90;94.76;100062.16;5104056;27;103033;-84
2021/03/02 05:26:52;;;;;;;14.73;10.83;;;;;;;1.00;93.27;100055.09;5100185;27;104002;-83
2021/03/02 05:29:19;;;;;;;19.50;14.10;;;;;;;0.97;92.11;100061.22;5082497;27;106014;-81
2021/03/02 05:31:47;;;;;;;18.87;14.00;;;;;;;0.99;92.63;100063.78;5101741;27;102787;-83
2021/03/02 05:34:14;;;;;;;22.20;13.73;;;;;;;0.85;93.60;100060.47;5108697;27;103133;-81
2021/03/02 05:36:42;;;;;;;15.77;11.40;;;;;;;1.03;93.05;100060.28;5101459;27;104379;-81
2021/03/02 05:39:09;;;;;;;18.83;11.67;;;;;;;1.01;93.24;100056.84;5105022;27;103923;-80
2021/03/02 05:41:36;;;;;;;13.90;10.27;;;;;;;1.10;92.46;100054.97;5108658;27;102954;-81
2021/03/02 05:44:04;;;;;;;18.13;13.97;;;;;;;0.97;92.27;100049.94;5079706;27;103233;-80
2021/03/02 05:46:33;;;;;;;20.33;13.93;;;;;;;1.04;92.46;100052.44;5104348;27;107055;-81
2021/03/02 05:49:03;;;;;;;21.50;14.30;;;;;;;1.02;91.71;100054.19;5100381;27;103791;-81
2021/03/02 05:51:31;;;;;;;18.97;15.00;;;;;;;0.97;91.77;100061.22;5105903;27;102996;-82
2021/03/02 05:53:59;;;;;;;22.50;14.57;;;;;;;0.73;93.02;100060.66;5101535;27;103422;-81
2021/03/02 05:56:26;;;;;;;21.70;14.40;;;;;;;0.70;93.78;100058.06;5077741;27;105368;-82
2021/03/02 05:58:53;;;;;;;19.87;14.67;;;;;;;0.69;94.61;100065.00;5108215;27;103699;-80
2021/03/02 06:01:20;;;;;;;18.33;13.97;;;;;;;0.61;95.66;100058.16;5095099;27;103277;-81
2021/03/02 06:03:47;;;;;;;19.10;13.63;;;;;;;0.58;95.86;100062.53;5106780;27;102975;-80
2021/03/02 06:06:15;;;;;;;21.07;14.20;;;;;;;0.62;96.06;100059.91;5090989;27;103300;-81
2021/03/02 06:08:44;;;;;;;20.00;14.33;;;;;;;0.76;95.37;100071.03;5092171;27;103669;-81
2021/03/02 06:11:29;;;;;;;17.87;12.83;;;;;;;0.96;94.05;100064.69;5102546;27;103267;-80
2021/03/02 06:13:56;;;;;;;16.73;11.90;;;;;;;1.12;92.70;100081.81;5106365;27;103026;-81
2021/03/02 06:16:24;;;;;;;15.97;9.27;;;;;;;1.27;91.82;100080.78;5107724;27;103331;-81
2021/03/02 06:18:53;;;;;;;14.83;9.87;;;;;;;1.37;91.07;100071.09;5107299;27;104123;-80
2021/03/02 06:21:22;;;;;;;12.93;9.40;;;;;;;1.49;90.44;100076.13;5105165;27;103542;-80
2021/03/02 06:23:51;;;;;;;18.97;11.50;;;;;;;1.45;89.87;100077.06;5070801;27;103342;-81
2021/03/02 06:26:26;;;;;;;21.83;14.63;;;;;;;1.35;91.09;100075.50;5105318;27;103887;-80
2021/03/02 06:28:55;;;;;;;16.63;11.93;;;;;;;1.36;91.53;100085.88;5095630;27;104456;-77
2021/03/02 06:31:36;;;;;;;15.27;12.53;;;;;;;1.37;91.56;100082.38;5081628;27;102930;-75
2021/03/02 06:34:14;;;;;;;15.50;11.57;;;;;;;1.54;91.25;100079.56;5103423;27;102861;-76
2021/03/02 06:36:58;;;;;;;17.03;11.60;;;;;;;1.60;90.15;100087.28;5095629;27;105306;-76
2021/03/02 06:39:28;;;;;;;17.43;12.60;;;;;;;1.55;90.82;100092.53;5087025;27;103661;-75
2021/03/02 06:42:11;;;;;;;21.17;13.20;;;;;;;1.52;91.72;100092.56;5106007;27;102878;-76
2021/03/02 06:44:38;;;;;;;16.27;12.40;;;;;;;1.72;90.05;100106.19;5101456;27;103248;-75
2021/03/02 06:47:30;;;;;;;13.27;10.17;;;;;;;1.94;89.06;100103.28;5105304;27;104735;-76
2021/03/02 06:49:58;;;;;;;13.67;10.27;;;;;;;2.08;87.84;100109.09;5098168;27;103875;-75
2021/03/02 06:52:26;;;;;;;15.17;10.77;;;;;;;2.06;88.17;100118.72;5105126;27;102875;-76
2021/03/02 06:54:53;;;;;;;14.53;11.10;;;;;;;2.12;87.98;100118.63;5102845;27;103060;-76
2021/03/02 06:57:22;;;;;;;17.93;12.43;;;;;;;2.09;88.15;100121.28;5093729;27;103347;-76
2021/03/02 06:59:53;;;;;;;18.97;12.47;;;;;;;2.25;87.72;100113.16;5096955;27;103376;-78
2021/03/02 07:02:36;;;;;;;16.20;11.27;;;;;;;2.38;87.37;100116.44;5094471;27;104652;-80
2021/03/02 07:05:06;;;;;;;12.63;9.50;;;;;;;2.52;86.90;100117.06;5097845;27;103209;-76
2021/03/02 07:07:34;;;;;;;19.03;13.13;;;;;;;2.58;86.08;100110.88;5090528;27;103488;-77
2021/03/02 07:10:03;;;;;;;19.33;11.87;;;;;;;2.73;85.69;100108.84;5099578;27;105208;-81
2021/03/02 07:12:32;;;;;;;17.03;9.90;;;;;;;2.81;85.42;100114.78;5082835;27;102758;-76
2021/03/02 07:15:01;;;;;;;12.40;9.67;;;;;;;2.95;85.33;100121.50;5100839;27;103121;-77
2021/03/02 07:17:38;;;;;;;12.80;8.93;;;;;;;3.11;85.40;100117.69;5093451;27;104271;-79
2021/03/02 07:20:09;;;;;;;16.87;9.60;;;;;;;3.44;83.84;100127.44;5102485;27;104232;-80
2021/03/02 07:22:38;;;;;;;16.37;10.90;;;;;;;3.68;82.22;100121.69;5100102;27;103311;-77
2021/03/02 07:25:09;;;;;;;14.70;10.30;;;;;;;3.97;81.28;100131.50;5103216;27;102810;-77
2021/03/02 07:27:41;;;;;;;18.73;9.93;;;;;;;4.21;80.59;100122.22;5104716;27;106085;-79
2021/03/02 07:30:09;;;;;;;19.30;11.13;;;;;;;4.31;80.28;100128.94;5097769;27;104376;-81
2021/03/02 07:32:38;;;;;;;14.70;11.53;;;;;;;4.37;79.87;100126.16;5093892;27;102940;-80
2021/03/02 07:35:08;;;;;;;20.93;12.60;;;;;;;4.53;79.44;100132.72;5092923;27;104748;-79
2021/03/02 07:37:37;;;;;;;17.87;11.67;;;;;;;4.57;78.52;100140.50;5100442;27;103822;-80
2021/03/02 07:40:08;;;;;;;18.43;12.10;;;;;;;4.73;78.34;100129.59;5092221;27;104224;-79
2021/03/02 07:42:35;;;;;;;15.97;10.90;;;;;;;5.04;77.39;100133.13;5089829;27;103097;-80
2021/03/02 07:45:05;;;;;;;25.93;12.53;;;;;;;5.23;76.30;100140.44;5085810;27;104582;-80
2021/03/02 07:47:54;;;;;;;16.07;12.10;;;;;;;5.55;76.13;100136.91;5087082;27;104246;-79
2021/03/02 07:50:22;;;;;;;15.83;11.80;;;;;;;5.74;75.22;100134.56;5092564;27;105419;-80
2021/03/02 07:53:20;;;;;;;16.97;11.33;;;;;;;6.36;72.64;100133.50;5084576;27;103040;-79
2021/03/02 07:56:25;;;;;;;18.60;11.47;;;;;;;6.64;71.48;100129.94;5084938;27;102708;-80
2021/03/02 07:59:18;;;;;;;18.43;12.10;;;;;;;6.85;70.30;100127.44;5088142;27;110509;-80
2021/03/02 08:02:13;;;;;;;16.17;12.33;;;;;;;7.28;69.94;100126.78;5089562;27;103864;-79
2021/03/02 08:04:40;;;;;;;16.70;10.10;;;;;;;7.64;68.80;100131.56;5085233;27;103252;-78
2021/03/02 08:07:20;;;;;;;16.10;11.40;;;;;;;7.92;68.27;100132.22;5092344;27;104084;-85
2021/03/02 08:09:48;;;;;;;12.93;11.33;;;;;;;7.71;68.21;100127.81;5103467;27;103882;-83
2021/03/02 08:12:27;;;;;;;16.87;11.87;;;;;;;7.97;67.50;100133.75;5095351;27;104078;-83
2021/03/02 08:14:55;;;;;;;14.10;10.47;;;;;;;7.82;68.20;100130.88;5088274;27;102993;-84
2021/03/02 08:17:25;;;;;;;13.43;10.23;;;;;;;8.69;66.25;100135.22;5103735;27;102881;-84
2021/03/02 08:20:01;;;;;;;16.07;10.50;;;;;;;9.10;63.67;100136.06;5108791;27;103836;-85
2021/03/02 08:22:51;;;;;;;13.40;10.47;;;;;;;9.15;63.80;100133.25;5100052;27;105989;-83
2021/03/02 08:25:39;;;;;;;13.67;10.53;;;;;;;8.90;65.30;100130.81;5094985;27;102868;-82
2021/03/02 08:28:09;;;;;;;12.13;9.10;;;;;;;9.59;64.53;100144.44;5100290;27;103350;-82
2021/03/02 08:30:37;;;;;;;12.77;9.87;;;;;;;9.88;64.47;100136.88;5102262;27;103464;-82
2021/03/02 08:33:08;;;;;;;14.77;11.63;;;;;;;9.58;63.67;100133.03;5088654;27;105480;-82
2021/03/02 08:35:37;;;;;;;11.63;10.30;;;;;;;10.01;62.26;100141.59;5088603;27;102921;-82
2021/03/02 08:38:07;;;;;;;13.70;10.13;;;;;;;9.82;62.41;100144.25;5100350;27;102883;-82
2021/03/02 08:40:46;;;;;;;19.17;11.40;;;;;;;9.25;63.95;100143.31;5097026;27;103954;-82
2021/03/02 08:43:19;;;;;;;14.93;11.70;;;;;;;9.60;62.80;100147.00;5104497;27;103715;-82
2021/03/02 08:45:51;;;;;;;15.03;10.97;;;;;;;9.65;63.47;100141.53;5094617;27;103630;-82
2021/03/02 08:48:25;;;;;;;13.73;11.70;;;;;;;10.15;62.40;100134.75;5107096;27;103668;-84
2021/03/02 08:50:55;;;;;;;12.87;11.03;;;;;;;10.04;62.09;100144.09;5093715;27;104316;-82
2021/03/02 08:53:40;;;;;;;12.23;10.83;;;;;;;11.04;61.07;100138.19;5101228;27;104139;-82
2021/03/02 08:56:18;;;;;;;15.23;11.07;;;;;;;11.06;59.89;100136.31;5088810;27;103308;-83
2021/03/02 08:58:47;;;;;;;13.57;11.27;;;;;;;11.19;58.39;100130.38;5081164;27;103005;-84
2021/03/02 09:01:17;;;;;;;13.97;11.50;;;;;;;10.88;59.46;100129.34;5099767;27;104769;-83
2021/03/02 09:03:46;;;;;;;12.73;11.03;;;;;;;11.07;59.12;100124.81;5095610;27;103935;-82
2021/03/02 09:06:17;;;;;;;11.83;10.43;;;;;;;11.14;58.80;100130.63;5098249;27;103078;-84
2021/03/02 09:08:52;;;;;;;11.63;10.40;;;;;;;11.74;57.40;100133.59;5094443;27;103114;-83
2021/03/02 09:11:25;;;;;;;12.87;10.53;;;;;;;11.57;58.26;100131.84;5075963;27;104169;-83
2021/03/02 09:13:55;;;;;;;13.47;10.53;;;;;;;12.07;56.75;100137.91;5083738;27;107281;-82
2021/03/02 09:16:33;;;;;;;14.67;10.70;;;;;;;12.04;56.51;100134.59;5087062;27;103085;-83
2021/03/02 09:19:25;;;;;;;17.77;11.90;;;;;;;11.38;57.04;100131.13;5078033;27;103087;-82
2021/03/02 09:21:59;;;;;;;14.40;11.50;;;;;;;11.63;57.64;100142.09;5104161;27;104470;-81
2021/03/02 09:24:44;;;;;;;13.47;11.47;;;;;;;11.90;57.41;100137.97;5103460;27;103073;-83
2021/03/02 09:27:14;;;;;;;18.93;13.27;;;;;;;10.73;58.95;100134.53;5093440;27;102894;-83
2021/03/02 09:29:43;;;;;;;16.27;12.57;;;;;;;11.26;58.75;100142.34;5107136;27;102967;-82
2021/03/02 09:32:13;;;;;;;16.00;13.13;;;;;;;11.49;57.98;100139.34;5075202;27;104401;-82
2021/03/02 09:34:42;;;;;;;15.60;12.77;;;;;;;11.70;57.22;100140.03;5086925;27;103741;-89
2021/03/02 09:37:12;;;;;;;18.00;12.93;;;;;;;11.86;55.88;100139.09;5076797;27;102999;-84
2021/03/02 09:39:41;;;;;;;15.70;12.67;;;;;;;12.05;56.04;100139.78;5102993;27;103122;-80
2021/03/02 09:42:20;;;;;;;16.00;13.27;;;;;;;12.52;56.68;100144.22;5094108;27;104042;-80
2021/03/02 09:44:51;;;;;;;19.50;13.10;;;;;;;12.35;56.85;100139.03;5073875;27;104867;-81
2021/03/02 09:47:25;;;;;;;14.57;12.83;;;;;;;12.37;56.29;100139.78;5086577;27;102992;-80
2021/03/02 09:49:58;;;;;;;18.47;13.37;;;;;;;12.43;56.71;100140.28;5084286;27;102920;-80
2021/03/02 09:52:34;;;;;;;13.93;12.17;;;;;;;12.45;55.30;100140.19;5106273;27;104565;-79
2021/03/02 09:55:16;;;;;;;13.27;10.30;;;;;;;12.87;53.72;100134.19;5073169;27;106595;-82
2021/03/02 09:57:57;;;;;;;12.07;10.77;;;;;;;12.66;54.21;100133.63;5103155;27;103049;-82
2021/03/02 10:00:28;;;;;;;14.43;11.37;;;;;;;12.68;54.42;100140.59;5091910;27;104203;-79
2021/03/02 10:02:58;;;;;;;13.30;11.90;;;;;;;12.47;55.22;100133.84;5084399;27;104434;-79
2021/03/02 10:05:34;;;;;;;19.00;12.80;;;;;;;12.44;54.20;100135.81;5096792;27;104121;-79
2021/03/02 10:08:24;;;;;;;16.27;11.80;;;;;;;12.66;54.42;100137.13;5088385;27;103192;-79
2021/03/02 10:10:52;;;;;;;17.40;12.43;;;;;;;12.86;53.90;100133.31;5107753;27;103026;-80
2021/03/02 10:13:28;;;;;;;13.07;11.67;;;;;;;13.12;53.47;100134.47;5077082;27;103349;-80
2021/03/02 10:16:30;;;;;;;14.60;12.30;;;;;;;12.10;55.12;100137.72;5087987;27;104086;-81
2021/03/02 10:18:59;;;;;;;14.07;12.20;;;;;;;12.14;55.00;100133.97;5001172;28;103190;-80
2021/03/02 10:21:28;;;;;;;14.67;11.77;;;;;;;12.76;54.17;100132.16;5020766;28;103067;-80
2021/03/02 10:23:58;;;;;;;15.90;13.27;;;;;;;12.23;54.74;100137.06;5057127;27;103696;-79
2021/03/02 10:26:29;;;;;;;12.70;10.63;;;;;;;13.35;53.42;100134.78;5094003;27;104229;-82
2021/03/02 10:28:56;;;;;;;15.97;12.23;;;;;;;13.29;52.87;100137.81;5090504;27;103995;-83
2021/03/02 10:31:24;;;;;;;16.87;12.27;;;;;;;13.21;53.71;100134.78;5087196;27;102977;-82
2021/03/02 10:33:53;;;;;;;13.90;12.47;;;;;;;12.94;53.21;100128.41;5099192;27;103913;-82
2021/03/02 10:36:28;;;;;;;14.87;12.77;;;;;;;13.26;53.34;100138.00;5086849;27;104301;-80
2021/03/02 10:38:57;;;;;;;14.07;12.43;;;;;;;13.43;52.32;100131.66;5107182;27;102802;-81
2021/03/02 10:41:25;;;;;;;14.83;11.90;;;;;;;13.47;53.30;100129.66;5105668;27;102955;-80
2021/03/02 10:43:54;;;;;;;13.80;12.40;;;;;;;13.70;51.87;100124.63;5087549;27;106479;-80
2021/03/02 10:46:23;;;;;;;12.07;10.73;;;;;;;14.26;51.32;100120.16;5102509;27;105658;-81
2021/03/02 10:48:52;;;;;;;12.57;11.27;;;;;;;14.06;51.01;100134.75;5082245;27;103234;-80
2021/03/02 10:51:20;;;;;;;13.17;10.07;;;;;;;14.36;50.55;100129.25;5073803;27;103507;-81
2021/03/02 10:53:48;;;;;;;15.97;12.20;;;;;;;13.86;50.91;100128.03;5079325;27;112206;-80
2021/03/02 10:56:16;;;;;;;14.60;12.30;;;;;;;13.70;50.52;100123.75;5105706;27;104424;-81
2021/03/02 10:58:44;;;;;;;18.17;13.30;;;;;;;13.59;50.83;100128.88;5104067;27;103045;-80
2021/03/02 11:01:12;;;;;;;13.87;11.30;;;;;;;14.17;50.61;100126.94;5098328;27;103157;-80
2021/03/02 11:03:42;;;;;;;17.10;12.80;;;;;;;14.09;49.87;100121.22;5084619;27;104119;-80
2021/03/02 11:06:10;;;;;;;10.70;9.60;;;;;;;14.60;50.29;100118.81;5085165;27;103663;-79
2021/03/02 11:08:38;;;;;;;16.50;12.17;;;;;;;14.29;50.16;100117.28;5097563;27;103190;-80
2021/03/02 11:11:06;;;;;;;14.13;12.30;;;;;;;14.27;50.20;100112.06;5099177;27;104245;-80
2021/03/02 11:13:34;;;;;;;12.17;10.87;;;;;;;15.08;48.22;100116.34;5104026;27;104339;-81
2021/03/02 11:16:02;;;;;;;12.80;11.50;;;;;;;15.19;48.50;100112.94;5117468;27;103674;-82
2021/03/02 11:18:33;;;;;;;17.97;12.17;;;;;;;15.22;48.70;100112.75;5116759;27;103128;-87
2021/03/02 11:21:01;;;;;;;16.13;12.23;;;;;;;15.65;47.59;100116.81;5109661;27;102919;-82
2021/03/02 11:23:29;;;;;;;13.83;12.03;;;;;;;15.71;47.36;100109.34;5094963;27;103475;-87
2021/03/02 11:25:56;;;;;;;15.40;12.00;;;;;;;15.30;46.88;100102.41;5098003;27;106300;-81
2021/03/02 11:28:23;;;;;;;18.77;12.03;;;;;;;15.67;47.17;100106.03;5095191;27;103143;-82